createdAt,value
2018-09-17T00:00:56.458Z,8.77
2018-09-17T00:03:25.850Z,6.13
2018-09-17T00:05:55.180Z,4.80
2018-09-17T00:08:24.669Z,5.63
2018-09-17T00:10:54.058Z,4.17
2018-09-17T00:13:23.379Z,5.77
2018-09-17T00:15:52.630Z,3.97
2018-09-17T00:18:21.908Z,5.13
2018-09-17T00:20:51.295Z,3.53
2018-09-17T00:23:20.769Z,10.37
2018-09-17T00:25:50.068Z,5.30
2018-09-17T00:28:19.396Z,3.90
2018-09-17T00:30:48.762Z,5.50
2018-09-17T00:33:18.174Z,4.23
2018-09-17T00:35:47.552Z,7.77
2018-09-17T00:38:16.876Z,3.67
2018-09-17T00:40:46.174Z,4.60
2018-09-17T00:43:15.606Z,6.00
2018-09-17T00:45:44.949Z,4.43
2018-09-17T00:48:14.252Z,6.03
2018-09-17T00:50:43.573Z,4.40
2018-09-17T00:53:12.846Z,5.93
2018-09-17T00:55:42.489Z,4.70
2018-09-17T00:58:12.038Z,5.03
2018-09-17T01:00:41.389Z,4.87
2018-09-17T01:03:10.661Z,4.43
2018-09-17T01:05:39.935Z,4.73
2018-09-17T01:08:09.498Z,4.93
2018-09-17T01:10:38.806Z,5.00
2018-09-17T01:13:08.166Z,5.23
2018-09-17T01:15:37.630Z,6.10
2018-09-17T01:18:06.979Z,5.10
2018-09-17T01:20:36.315Z,4.37
2018-09-17T01:23:05.604Z,3.73
2018-09-17T01:25:34.898Z,5.30
2018-09-17T01:28:04.326Z,3.50
2018-09-17T01:30:33.633Z,7.30
2018-09-17T01:33:02.927Z,4.67
2018-09-17T01:35:32.282Z,3.30
2018-09-17T01:38:01.672Z,4.70
2018-09-17T01:40:31.026Z,3.30
2018-09-17T01:43:00.441Z,4.77
2018-09-17T01:45:29.719Z,5.20
2018-09-17T01:47:59.163Z,4.40
2018-09-17T01:50:28.485Z,2.80
2018-09-17T01:52:57.901Z,4.03
2018-09-17T01:55:26.914Z,5.20
2018-09-17T01:57:55.941Z,5.13
2018-09-17T02:00:25.242Z,4.03
2018-09-17T02:02:54.631Z,4.10
2018-09-17T02:05:24.016Z,5.00
2018-09-17T02:07:53.406Z,3.93
2018-09-17T02:10:22.673Z,7.20
2018-09-17T02:12:51.981Z,3.80
2018-09-17T02:15:21.446Z,3.27
2018-09-17T02:17:50.796Z,8.40
2018-09-17T02:20:20.155Z,4.27
2018-09-17T02:22:49.598Z,4.03
2018-09-17T02:25:18.869Z,3.30
2018-09-17T02:27:48.238Z,2.93
2018-09-17T02:30:17.643Z,11.20
2018-09-17T02:32:46.937Z,10.80
2018-09-17T02:35:16.296Z,4.27
2018-09-17T02:37:45.832Z,5.37
2018-09-17T02:40:16.307Z,5.13
2018-09-17T02:42:47.643Z,3.20
2018-09-17T02:45:17.485Z,4.20
2018-09-17T02:47:47.725Z,3.23
2018-09-17T02:50:17.026Z,3.37
2018-09-17T02:52:46.339Z,2.80
2018-09-17T02:55:15.636Z,8.10
2018-09-17T02:57:45.537Z,3.60
2018-09-17T03:00:19.353Z,5.00
2018-09-17T03:02:50.206Z,5.33
2018-09-17T03:05:19.492Z,5.17
2018-09-17T03:07:49.083Z,4.30
2018-09-17T03:10:18.410Z,6.13
2018-09-17T03:12:47.886Z,6.40
2018-09-17T03:15:50.745Z,4.43
2018-09-17T03:19:34.700Z,4.30
2018-09-17T03:22:04.134Z,3.77
2018-09-17T03:24:33.781Z,8.30
2018-09-17T03:27:03.134Z,6.30
2018-09-17T03:29:32.617Z,5.40
2018-09-17T03:32:02.126Z,5.77
2018-09-17T03:34:31.433Z,3.40
2018-09-17T03:37:00.829Z,4.53
2018-09-17T03:39:30.181Z,5.67
2018-09-17T03:41:59.648Z,5.70
2018-09-17T03:44:29.010Z,9.63
2018-09-17T03:46:58.353Z,4.40
2018-09-17T03:49:27.696Z,3.20
2018-09-17T03:51:57.072Z,5.60
2018-09-17T03:54:26.526Z,5.43
2018-09-17T03:56:55.842Z,6.33
2018-09-17T03:59:25.897Z,5.53
2018-09-17T04:01:55.270Z,6.13
2018-09-17T04:04:24.826Z,6.00
2018-09-17T04:06:54.313Z,5.50
2018-09-17T04:09:23.906Z,4.87
2018-09-17T04:11:53.204Z,6.50
2018-09-17T04:14:22.633Z,12.03
2018-09-17T04:16:52.049Z,8.57
2018-09-17T04:19:21.461Z,4.90
2018-09-17T04:21:51.089Z,4.80
2018-09-17T04:24:20.641Z,16.73
2018-09-17T04:26:49.969Z,4.03
2018-09-17T04:29:19.352Z,4.27
2018-09-17T04:31:48.626Z,11.07
2018-09-17T04:34:18.001Z,5.97
2018-09-17T04:36:47.431Z,5.57
2018-09-17T04:39:18.754Z,5.83
2018-09-17T04:41:48.403Z,4.90
2018-09-17T04:44:17.867Z,4.70
2018-09-17T04:46:47.277Z,8.73
2018-09-17T04:49:16.601Z,13.23
2018-09-17T04:51:46.104Z,8.63
2018-09-17T04:54:15.405Z,4.03
2018-09-17T04:56:44.843Z,5.80
2018-09-17T04:59:14.177Z,5.77
2018-09-17T05:01:43.598Z,5.73
2018-09-17T05:04:12.894Z,5.40
2018-09-17T05:06:42.185Z,5.30
2018-09-17T05:09:11.502Z,6.93
2018-09-17T05:11:40.917Z,5.33
2018-09-17T05:14:10.467Z,4.63
2018-09-17T05:16:39.956Z,8.70
2018-09-17T05:19:09.245Z,4.77
2018-09-17T05:21:38.714Z,5.83
2018-09-17T05:24:08.014Z,7.80
2018-09-17T05:26:37.326Z,9.37
2018-09-17T05:29:06.737Z,5.60
2018-09-17T05:31:36.160Z,8.27
2018-09-17T05:34:05.465Z,4.03
2018-09-17T05:36:35.169Z,5.03
2018-09-17T05:39:07.345Z,17.93
2018-09-17T05:41:37.138Z,6.07
2018-09-17T05:44:06.681Z,10.63
2018-09-17T05:46:36.240Z,10.23
2018-09-17T05:49:05.671Z,6.30
2018-09-17T05:51:35.451Z,6.33
2018-09-17T05:54:05.413Z,6.00
2018-09-17T05:56:34.897Z,10.80
2018-09-17T05:59:04.253Z,6.03
2018-09-17T06:01:33.796Z,4.80
2018-09-17T06:04:03.189Z,7.63
2018-09-17T06:06:32.538Z,7.47
2018-09-17T06:09:02.067Z,8.57
2018-09-17T06:11:31.677Z,8.43
2018-09-17T06:14:01.129Z,7.60
2018-09-17T06:16:30.545Z,8.60
2018-09-17T06:19:00.077Z,16.73
2018-09-17T06:21:29.568Z,8.87
2018-09-17T06:23:58.937Z,12.43
2018-09-17T06:26:28.256Z,9.43
2018-09-17T06:28:57.664Z,10.03
2018-09-17T06:31:26.974Z,12.67
2018-09-17T06:33:56.334Z,9.87
2018-09-17T06:36:26.553Z,7.90
2018-09-17T06:38:55.982Z,10.90
2018-09-17T06:41:26.331Z,14.07
2018-09-17T06:43:55.638Z,10.80
2018-09-17T06:46:25.447Z,12.37
2018-09-17T06:48:55.036Z,13.60
2018-09-17T06:51:24.408Z,12.53
2018-09-17T06:53:53.989Z,26.03
2018-09-17T06:56:23.517Z,24.57
2018-09-17T06:58:52.815Z,15.10
2018-09-17T07:01:22.245Z,16.57
2018-09-17T07:03:51.650Z,9.47
2018-09-17T07:06:21.289Z,10.23
2018-09-17T07:08:50.752Z,12.63
2018-09-17T07:11:20.332Z,16.10
2018-09-17T07:13:49.869Z,12.10
2018-09-17T07:16:19.279Z,5.20
2018-09-17T07:18:48.685Z,6.03
2018-09-17T07:21:18.036Z,7.43
2018-09-17T07:23:47.345Z,10.27
2018-09-17T07:26:17.018Z,13.83
2018-09-17T07:28:46.387Z,15.13
2018-09-17T07:31:16.228Z,7.77
2018-09-17T07:33:45.610Z,11.17
2018-09-17T07:36:15.085Z,14.83
2018-09-17T07:38:45.515Z,8.10
2018-09-17T07:41:14.864Z,5.63
2018-09-17T07:43:44.172Z,11.67
2018-09-17T07:46:13.534Z,7.30
2018-09-17T07:48:42.854Z,19.83
2018-09-17T07:51:12.243Z,5.43
2018-09-17T07:53:41.706Z,9.20
2018-09-17T07:56:11.327Z,9.50
2018-09-17T07:58:40.695Z,16.90
2018-09-17T08:01:10.108Z,22.77
2018-09-17T08:03:39.670Z,12.70
2018-09-17T08:06:09.219Z,6.03
2018-09-17T08:08:38.526Z,19.03
2018-09-17T08:11:07.838Z,7.97
2018-09-17T08:13:37.346Z,12.70
2018-09-17T08:16:06.839Z,13.17
2018-09-17T08:18:36.192Z,6.30
2018-09-17T08:21:05.682Z,7.70
2018-09-17T08:23:35.115Z,7.03
2018-09-17T08:26:04.529Z,4.73
2018-09-17T08:28:33.836Z,5.13
2018-09-17T08:31:03.233Z,13.53
2018-09-17T08:33:32.619Z,7.13
2018-09-17T08:36:01.952Z,6.40
2018-09-17T08:38:31.401Z,8.23
2018-09-17T08:41:00.947Z,5.07
2018-09-17T08:43:30.453Z,7.10
2018-09-17T08:45:59.884Z,5.50
2018-09-17T08:48:29.412Z,6.30
2018-09-17T08:50:58.901Z,3.80
2018-09-17T08:53:28.216Z,6.33
2018-09-17T08:56:05.017Z,5.23
2018-09-17T08:58:34.925Z,4.87
2018-09-17T09:01:08.575Z,5.57
2018-09-17T09:03:39.522Z,6.03
2018-09-17T09:06:17.374Z,2.50
2018-09-17T09:08:47.043Z,5.20
2018-09-17T09:11:20.256Z,5.67
2018-09-17T09:13:54.846Z,4.00
2018-09-17T09:16:25.401Z,13.60
2018-09-17T09:18:54.735Z,5.67
2018-09-17T09:21:24.184Z,7.43
2018-09-17T09:23:53.614Z,9.17
2018-09-17T09:26:23.133Z,4.20
2018-09-17T09:28:52.586Z,7.60
2018-09-17T09:31:21.899Z,5.70
2018-09-17T09:33:51.250Z,4.00
2018-09-17T09:36:20.583Z,9.13
2018-09-17T09:38:50.164Z,4.57
2018-09-17T09:41:19.636Z,3.60
2018-09-17T09:43:49.071Z,4.63
2018-09-17T09:46:18.609Z,4.13
2018-09-17T09:48:47.990Z,3.70
2018-09-17T09:51:17.554Z,7.90
2018-09-17T09:53:46.952Z,3.73
2018-09-17T09:56:16.353Z,3.37
2018-09-17T09:58:45.723Z,9.40
2018-09-17T10:01:20.708Z,5.53
2018-09-17T10:04:24.944Z,7.90
2018-09-17T10:06:54.608Z,6.93
2018-09-17T10:09:29.538Z,4.50
2018-09-17T10:12:04.395Z,3.30
2018-09-17T10:14:39.141Z,4.27
2018-09-17T10:17:14.059Z,7.07
2018-09-17T10:19:50.857Z,3.67
2018-09-17T10:22:20.956Z,9.23
2018-09-17T10:24:50.347Z,6.47
2018-09-17T10:27:19.929Z,9.40
2018-09-17T10:29:49.493Z,5.17
2018-09-17T10:32:20.007Z,4.73
2018-09-17T10:34:49.331Z,4.10
2018-09-17T10:37:18.799Z,7.40
2018-09-17T10:39:48.244Z,2.50
2018-09-17T10:42:17.614Z,4.57
2018-09-17T10:44:46.959Z,4.60
2018-09-17T10:47:16.356Z,3.17
2018-09-17T10:49:45.777Z,2.53
2018-09-17T10:52:15.173Z,3.70
2018-09-17T10:54:44.569Z,5.03
2018-09-17T10:57:14.054Z,8.50
2018-09-17T10:59:43.341Z,5.07
2018-09-17T11:02:12.808Z,3.23
2018-09-17T11:04:42.252Z,10.30
2018-09-17T11:07:11.691Z,5.20
2018-09-17T11:09:43.092Z,3.60
2018-09-17T11:12:12.693Z,6.20
2018-09-17T11:14:43.131Z,4.93
2018-09-17T11:17:12.686Z,4.17
2018-09-17T11:19:42.047Z,4.40
2018-09-17T11:22:11.432Z,4.47
2018-09-17T11:24:41.855Z,7.03
2018-09-17T11:27:11.295Z,7.30
2018-09-17T11:29:41.490Z,3.43
2018-09-17T11:32:10.964Z,4.23
2018-09-17T11:34:40.449Z,3.30
2018-09-17T11:37:09.813Z,5.17
2018-09-17T11:39:39.222Z,4.03
2018-09-17T11:42:09.098Z,6.07
2018-09-17T11:44:38.794Z,2.80
2018-09-17T11:47:08.628Z,4.23
2018-09-17T11:49:38.037Z,9.13
2018-09-17T11:52:07.432Z,5.13
2018-09-17T11:54:36.873Z,5.77
2018-09-17T11:57:06.308Z,7.60
2018-09-17T11:59:35.626Z,3.40
2018-09-17T12:02:15.539Z,3.30
2018-09-17T12:04:50.073Z,5.73
2018-09-17T12:07:25.156Z,2.67
2018-09-17T12:09:55.452Z,6.23
2018-09-17T12:12:25.004Z,5.30
2018-09-17T12:14:54.348Z,3.13
2018-09-17T12:17:24.407Z,5.03
2018-09-17T12:19:54.809Z,3.70
2018-09-17T12:22:24.341Z,4.30
2018-09-17T12:24:53.891Z,5.27
2018-09-17T12:27:23.532Z,4.70
2018-09-17T12:29:53.128Z,5.60
2018-09-17T12:32:22.526Z,4.43
2018-09-17T12:34:52.035Z,6.60
2018-09-17T12:37:21.778Z,4.27
2018-09-17T12:39:51.995Z,7.23
2018-09-17T12:42:21.604Z,5.17
2018-09-17T12:44:51.026Z,7.70
2018-09-17T12:47:20.525Z,3.77
2018-09-17T12:49:50.109Z,5.00
2018-09-17T12:52:19.482Z,9.13
2018-09-17T12:54:49.553Z,2.20
2018-09-17T12:57:19.091Z,8.33
2018-09-17T12:59:48.448Z,5.83
2018-09-17T13:02:18.002Z,4.87
2018-09-17T13:04:47.912Z,2.53
2018-09-17T13:07:18.785Z,5.03
2018-09-17T13:09:48.539Z,6.67
2018-09-17T13:12:18.121Z,5.97
2018-09-17T13:14:47.600Z,5.93
2018-09-17T13:17:19.142Z,10.20
2018-09-17T13:19:48.685Z,6.53
2018-09-17T13:22:20.907Z,6.27
2018-09-17T13:24:50.619Z,5.17
2018-09-17T13:27:21.376Z,4.03
2018-09-17T13:29:51.636Z,10.70
2018-09-17T13:32:21.852Z,2.77
2018-09-17T13:34:51.803Z,5.93
2018-09-17T13:37:22.705Z,3.17
2018-09-17T13:39:57.478Z,6.20
2018-09-17T13:42:28.205Z,4.10
2018-09-17T13:44:58.299Z,7.83
2018-09-17T13:47:35.366Z,3.17
2018-09-17T13:50:06.785Z,6.07
2018-09-17T13:52:37.120Z,5.60
2018-09-17T13:55:11.195Z,2.67
2018-09-17T13:57:44.190Z,10.17
2018-09-17T14:00:14.329Z,5.57
2018-09-17T14:02:43.666Z,3.33
2018-09-17T14:05:13.134Z,3.60
2018-09-17T14:07:42.463Z,3.70
2018-09-17T14:10:12.057Z,2.83
2018-09-17T14:12:41.467Z,3.23
2018-09-17T14:15:11.264Z,4.53
2018-09-17T14:17:40.717Z,6.07
2018-09-17T14:20:10.260Z,3.70
2018-09-17T14:22:39.788Z,9.30
2018-09-17T14:25:09.290Z,11.20
2018-09-17T14:27:38.829Z,5.63
2018-09-17T14:30:08.927Z,6.80
2018-09-17T14:32:43.854Z,11.57
2018-09-17T14:35:13.223Z,5.90
2018-09-17T14:37:42.670Z,2.77
2018-09-17T14:40:12.532Z,5.53
2018-09-17T14:42:43.122Z,3.47
2018-09-17T14:45:13.321Z,4.63
2018-09-17T14:47:42.736Z,9.97
2018-09-17T14:50:12.071Z,8.00
2018-09-17T14:52:42.685Z,6.27
2018-09-17T14:55:12.121Z,3.33
2018-09-17T14:57:42.036Z,2.63
2018-09-17T15:00:11.464Z,6.10
2018-09-17T15:02:40.861Z,5.37
2018-09-17T15:05:10.545Z,5.57
2018-09-17T15:07:40.083Z,3.43
2018-09-17T15:10:09.437Z,4.70
2018-09-17T15:12:38.851Z,8.20
2018-09-17T15:15:08.354Z,5.67
2018-09-17T15:17:37.930Z,6.27
2018-09-17T15:20:07.680Z,6.33
2018-09-17T15:22:37.606Z,5.90
2018-09-17T15:25:06.957Z,4.67
2018-09-17T15:27:36.293Z,7.87
2018-09-17T15:30:06.547Z,9.50
2018-09-17T15:32:36.130Z,8.47
2018-09-17T15:35:05.502Z,6.07
2018-09-17T15:37:34.873Z,5.43
2018-09-17T15:40:05.515Z,5.37
2018-09-17T15:42:34.832Z,14.33
2018-09-17T15:45:04.741Z,4.90
2018-09-17T15:47:34.097Z,10.57
2018-09-17T15:50:03.568Z,9.70
2018-09-17T15:52:33.163Z,8.67
2018-09-17T15:55:02.639Z,9.87
2018-09-17T15:57:31.982Z,6.47
2018-09-17T16:00:01.341Z,12.03
2018-09-17T16:02:30.965Z,7.97
2018-09-17T16:05:00.364Z,10.77
2018-09-17T16:07:29.831Z,8.30
2018-09-17T16:09:59.178Z,13.33
2018-09-17T16:12:28.423Z,18.10
2018-09-17T16:14:57.882Z,9.03
2018-09-17T16:17:27.361Z,12.40
2018-09-17T16:19:56.854Z,6.37
2018-09-17T16:22:26.318Z,5.90
2018-09-17T16:24:55.794Z,13.87
2018-09-17T16:27:25.595Z,18.83
2018-09-17T16:29:55.028Z,7.40
2018-09-17T16:32:24.448Z,5.43
2018-09-17T16:34:53.908Z,5.90
2018-09-17T16:37:24.281Z,5.27
2018-09-17T16:39:53.627Z,13.90
2018-09-17T16:42:24.388Z,9.90
2018-09-17T16:44:53.794Z,6.23
2018-09-17T16:47:23.299Z,7.47
2018-09-17T16:49:52.697Z,8.77
2018-09-17T16:52:22.328Z,4.93
2018-09-17T16:54:51.825Z,11.07
2018-09-17T16:57:21.152Z,8.97
2018-09-17T16:59:50.631Z,9.07
2018-09-17T17:02:20.130Z,11.30
2018-09-17T17:04:49.557Z,8.93
2018-09-17T17:07:19.029Z,18.13
2018-09-17T17:09:48.431Z,7.80
2018-09-17T17:12:17.682Z,13.00
2018-09-17T17:14:46.976Z,11.13
2018-09-17T17:17:17.103Z,15.83
2018-09-17T17:19:46.398Z,9.10
2018-09-17T17:22:15.786Z,22.20
2018-09-17T17:24:45.138Z,16.60
2018-09-17T17:27:14.487Z,7.67
2018-09-17T17:29:44.476Z,9.70
2018-09-17T17:32:14.311Z,8.93
2018-09-17T17:34:43.817Z,8.87
2018-09-17T17:37:13.234Z,9.83
2018-09-17T17:39:42.609Z,9.30
2018-09-17T17:42:12.151Z,9.57
2018-09-17T17:44:41.524Z,15.27
2018-09-17T17:47:10.856Z,12.13
2018-09-17T17:49:40.375Z,15.27
2018-09-17T17:52:09.984Z,13.73
2018-09-17T17:54:39.481Z,11.40
2018-09-17T17:57:08.669Z,17.00
2018-09-17T17:59:38.123Z,12.53
2018-09-17T18:02:07.502Z,18.00
2018-09-17T18:04:37.026Z,9.83
2018-09-17T18:07:06.413Z,10.67
2018-09-17T18:09:35.762Z,12.27
2018-09-17T18:12:05.108Z,15.70
2018-09-17T18:14:34.856Z,8.83
2018-09-17T18:17:04.290Z,8.57
2018-09-17T18:19:33.656Z,8.93
2018-09-17T18:22:03.075Z,16.53
2018-09-17T18:24:32.535Z,10.97
2018-09-17T18:27:02.100Z,10.93
2018-09-17T18:29:31.484Z,17.30
2018-09-17T18:32:00.886Z,12.47
2018-09-17T18:34:30.360Z,10.50
2018-09-17T18:36:59.890Z,11.67
2018-09-17T18:39:29.345Z,10.57
2018-09-17T18:41:58.803Z,12.13
2018-09-17T18:44:28.095Z,9.63
2018-09-17T18:46:57.510Z,7.57
2018-09-17T18:49:26.853Z,10.20
2018-09-17T18:51:56.255Z,12.90
2018-09-17T18:54:25.581Z,16.13
2018-09-17T18:56:56.086Z,8.20
2018-09-17T18:59:25.469Z,9.80
2018-09-17T19:01:54.847Z,18.10
2018-09-17T19:04:24.423Z,12.33
2018-09-17T19:06:54.013Z,9.70
2018-09-17T19:09:55.492Z,6.33
2018-09-17T19:12:25.197Z,11.23
2018-09-17T19:14:59.785Z,10.23
2018-09-17T19:17:34.682Z,10.10
2018-09-17T19:20:04.582Z,10.50
2018-09-17T19:22:39.437Z,8.83
2018-09-17T19:25:09.263Z,16.83
2018-09-17T19:27:44.136Z,11.10
2018-09-17T19:30:13.889Z,13.60
2018-09-17T19:32:43.448Z,14.03
2018-09-17T19:35:12.985Z,12.27
2018-09-17T19:37:47.839Z,9.93
2018-09-17T19:40:18.802Z,10.60
2018-09-17T19:42:49.662Z,11.47
2018-09-17T19:45:24.457Z,9.17
2018-09-17T19:47:54.117Z,10.87
2018-09-17T19:50:28.812Z,11.73
2018-09-17T19:52:58.253Z,11.57
2018-09-17T19:55:27.672Z,14.47
2018-09-17T20:17:59.736Z,11.63
2018-09-17T20:20:29.110Z,14.60
2018-09-17T20:22:58.374Z,10.20
2018-09-17T20:25:27.706Z,12.30
2018-09-17T20:27:57.033Z,10.70
2018-09-17T21:50:57.240Z,10.60
2018-09-17T21:53:26.550Z,14.30
2018-09-17T21:55:55.873Z,12.40
2018-09-17T21:58:25.177Z,12.77
2018-09-17T22:01:02.540Z,17.33
2018-09-17T22:03:33.665Z,21.23
2018-09-17T22:06:03.158Z,14.83
2018-09-17T22:08:32.464Z,10.37
2018-09-17T22:11:01.973Z,12.27
2018-09-17T22:13:31.324Z,14.43
2018-09-17T22:16:00.589Z,13.90
2018-09-17T22:18:29.963Z,10.50
2018-09-17T22:20:59.525Z,10.37
2018-09-17T22:23:28.834Z,12.87
2018-09-17T22:25:58.236Z,11.60
2018-09-17T22:28:27.645Z,11.80
2018-09-17T22:30:56.918Z,14.80
2018-09-17T22:33:26.323Z,11.73
2018-09-17T22:35:55.896Z,16.53
2018-09-17T22:38:25.197Z,20.90
2018-09-17T22:40:54.564Z,18.13
2018-09-17T22:43:23.933Z,18.50
2018-09-17T22:45:53.325Z,18.60
2018-09-17T22:48:22.620Z,11.37
2018-09-17T22:50:52.129Z,16.10
2018-09-17T22:53:21.511Z,13.27
2018-09-17T22:55:50.949Z,12.93
2018-09-17T22:58:20.245Z,13.90
2018-09-17T23:00:49.582Z,12.80
2018-09-17T23:03:18.911Z,11.13
2018-09-17T23:05:48.244Z,12.50
2018-09-17T23:08:17.639Z,11.93
2018-09-17T23:10:46.944Z,9.43
2018-09-17T23:13:16.334Z,11.37
2018-09-17T23:15:45.634Z,10.90
2018-09-17T23:18:14.920Z,10.13
2018-09-17T23:20:45.199Z,10.40
2018-09-17T23:23:14.581Z,8.60
2018-09-17T23:25:44.010Z,10.20
2018-09-17T23:28:13.553Z,11.97
2018-09-17T23:30:42.854Z,15.83
2018-09-17T23:33:12.451Z,15.13
2018-09-17T23:35:41.777Z,12.87
2018-09-17T23:38:11.181Z,16.77
2018-09-17T23:40:40.621Z,17.67
2018-09-17T23:43:09.942Z,17.43
2018-09-17T23:45:39.259Z,12.60
2018-09-17T23:48:08.803Z,18.77
2018-09-17T23:50:38.168Z,16.93
2018-09-17T23:53:07.492Z,17.50
2018-09-17T23:55:37.038Z,13.67
2018-09-17T23:58:06.386Z,15.10
